Terminal Aerodrome Forecast
Issued by NWS

Home | Current Version | Previous Version | Text Only | Print | Product List | Glossary On
Versions: 1 2 3 4 5 6 7 8 9 10 11 12 13 14 15 16 17 18 19 20 21 22 23 24 25 26 27 28
000
FTUS42 KJAX 220526
TAFVQQ
TAF
KVQQ 220526Z 2206/2306 18003KT P6SM VCSH SCT025 OVC060
      WS020/22035KT
      TEMPO 2206/2210 BKN025 OVC050
     FM221100 19010KT P6SM VCSH BKN015 OVC030
     FM221400 21018G30KT P6SM VCSH BKN025 OVC050
     FM221800 21023G33KT P6SM VCTS SCT025CB BKN050
      TEMPO 2219/2223 3SM TSRA BKN020CB OVC050
     FM222300 21020G30KT P6SM VCTS SCT025CB BKN100
      TEMPO 2223/2224 5SM -TSRA SCT020CB BKN050CB
     FM230100 23015G22KT P6SM BKN050=

USA.gov is the U.S. government's official web portal to all federal, state and local government web resources and services.